Time;durP1;ratioP1;P1;durP2;ratioP2;P2;SDS_P1;SDS_P2;PMS_P1;PMS_P2;Temp;Humidity;BMP_temperature;BMP_pressure;BME280_temperature;BME280_humidity;BME280_pressure;Samples;Min_cycle;Max_cycle;Signal;HPM_P1;HPM_P2
2022/07/25 00:01:02;;;;;;;2.30;2.10;;;22.50;99.90;;;;;;4996425;28;20133;-74
2022/07/25 00:03:28;;;;;;;4.28;2.70;;;22.50;99.90;;;;;;4995320;28;20089;-75
2022/07/25 00:05:54;;;;;;;3.25;2.50;;;22.50;99.90;;;;;;4995830;28;20443;-75
2022/07/25 00:08:19;;;;;;;2.80;2.60;;;22.60;99.90;;;;;;4994012;28;20054;-74
2022/07/25 00:10:46;;;;;;;3.53;2.47;;;22.50;99.90;;;;;;4995234;28;20135;-75
2022/07/25 00:13:11;;;;;;;2.80;2.50;;;22.60;99.90;;;;;;4995156;28;20050;-75
2022/07/25 00:15:37;;;;;;;4.55;2.60;;;22.60;99.90;;;;;;4994127;28;20050;-75
2022/07/25 00:18:03;;;;;;;3.45;3.15;;;22.60;99.90;;;;;;4994795;28;20096;-75
2022/07/25 00:20:29;;;;;;;4.70;3.22;;;22.60;99.90;;;;;;4995053;28;20057;-74
2022/07/25 00:22:54;;;;;;;3.65;3.35;;;22.50;99.90;;;;;;4995297;28;20034;-76
2022/07/25 00:25:20;;;;;;;4.20;3.80;;;22.60;99.90;;;;;;4994997;28;20254;-75
2022/07/25 00:27:46;;;;;;;3.53;3.22;;;22.60;99.90;;;;;;4994639;28;20050;-75
2022/07/25 00:30:12;;;;;;;3.95;3.55;;;22.50;99.90;;;;;;4994669;28;20115;-74
2022/07/25 00:32:37;;;;;;;4.53;4.10;;;22.60;99.90;;;;;;4993929;28;20386;-75
2022/07/25 00:35:03;;;;;;;4.60;3.60;;;22.50;99.90;;;;;;4994810;28;20046;-74
2022/07/25 00:37:29;;;;;;;4.68;3.92;;;22.50;99.90;;;;;;4993942;28;20052;-75
2022/07/25 00:39:55;;;;;;;6.40;4.45;;;22.50;99.90;;;;;;4994054;28;20042;-75
2022/07/25 00:42:22;;;;;;;5.43;4.05;;;22.50;99.90;;;;;;4993661;28;20427;-75
2022/07/25 00:44:49;;;;;;;4.80;4.28;;;22.40;99.90;;;;;;4995155;28;20122;-74
2022/07/25 00:47:14;;;;;;;4.30;3.90;;;22.40;99.90;;;;;;4994530;28;20074;-74
2022/07/25 00:49:40;;;;;;;5.35;4.55;;;22.40;99.90;;;;;;4994728;28;20062;-75
2022/07/25 00:52:06;;;;;;;6.85;4.57;;;22.40;99.90;;;;;;4995058;28;20485;-74
2022/07/25 00:54:32;;;;;;;5.13;4.65;;;22.30;99.90;;;;;;4994504;28;20072;-74
2022/07/25 00:56:58;;;;;;;5.57;4.35;;;22.30;99.90;;;;;;4994495;28;20042;-74
2022/07/25 00:59:23;;;;;;;6.78;5.50;;;22.30;99.90;;;;;;4994376;28;20100;-75
2022/07/25 01:01:49;;;;;;;5.00;4.50;;;22.20;99.90;;;;;;4994369;28;20043;-74
2022/07/25 01:04:16;;;;;;;9.30;4.70;;;22.20;99.90;;;;;;4993443;28;20048;-75
2022/07/25 01:06:42;;;;;;;7.10;5.20;;;22.10;99.90;;;;;;4994379;28;20090;-74
2022/07/25 01:09:08;;;;;;;6.32;5.05;;;22.10;99.90;;;;;;4994188;28;20505;-75
2022/07/25 01:11:34;;;;;;;8.05;5.40;;;22.10;99.90;;;;;;4992743;28;20173;-75
2022/07/25 01:13:59;;;;;;;6.20;5.25;;;22.00;99.90;;;;;;4994275;28;20507;-75
2022/07/25 01:16:25;;;;;;;5.95;5.35;;;22.00;99.90;;;;;;4994245;28;20050;-74
2022/07/25 01:18:51;;;;;;;7.40;5.38;;;22.00;99.90;;;;;;4994264;28;20041;-74
2022/07/25 01:21:16;;;;;;;7.63;6.28;;;21.90;99.90;;;;;;4993037;28;20046;-74
2022/07/25 01:23:42;;;;;;;6.15;5.55;;;21.90;99.90;;;;;;4994784;28;20048;-74
2022/07/25 01:26:08;;;;;;;7.57;6.22;;;21.90;99.90;;;;;;4994196;28;20050;-75
2022/07/25 01:28:34;;;;;;;8.70;6.55;;;21.90;99.90;;;;;;4992625;28;20069;-74
2022/07/25 01:30:59;;;;;;;7.53;6.15;;;21.90;99.90;;;;;;4994048;28;20058;-74
2022/07/25 01:33:25;;;;;;;6.93;6.25;;;21.80;99.90;;;;;;4994377;28;20046;-75
2022/07/25 01:35:51;;;;;;;7.05;6.45;;;21.80;99.90;;;;;;4993196;28;20051;-74
2022/07/25 01:38:17;;;;;;;7.28;6.18;;;21.80;99.90;;;;;;4994620;28;20046;-74
2022/07/25 01:40:43;;;;;;;7.72;6.90;;;21.80;99.90;;;;;;4992747;28;20559;-75
2022/07/25 01:43:09;;;;;;;8.45;7.22;;;21.70;99.90;;;;;;4993025;28;20046;-74
2022/07/25 01:45:35;;;;;;;7.80;7.07;;;21.70;99.90;;;;;;4993003;28;20086;-74
2022/07/25 01:48:01;;;;;;;8.27;7.00;;;21.70;99.90;;;;;;4993830;28;20125;-74
2022/07/25 01:50:27;;;;;;;8.38;7.13;;;21.70;99.90;;;;;;4997840;28;20153;-75
2022/07/25 01:52:52;;;;;;;9.02;7.50;;;21.60;99.90;;;;;;4996814;28;20054;-74
2022/07/25 01:55:18;;;;;;;9.02;7.25;;;21.60;99.90;;;;;;4997727;28;20129;-75
2022/07/25 01:57:44;;;;;;;8.00;7.20;;;21.60;99.90;;;;;;4997964;28;20042;-74
2022/07/25 02:00:12;;;;;;;7.97;7.22;;;21.60;99.90;;;;;;4997410;28;20447;-74
2022/07/25 02:02:39;;;;;;;8.27;7.47;;;21.50;99.90;;;;;;4998043;28;20054;-74
2022/07/25 02:05:05;;;;;;;8.65;7.80;;;21.50;99.90;;;;;;4997569;28;20498;-75
2022/07/25 02:07:31;;;;;;;9.20;6.65;;;21.50;99.90;;;;;;4996455;28;20057;-75
2022/07/25 02:09:57;;;;;;;8.88;7.90;;;21.50;99.90;;;;;;4980344;28;20042;-75
2022/07/25 02:12:22;;;;;;;9.73;7.53;;;21.50;99.90;;;;;;4997479;28;20100;-75
2022/07/25 02:14:48;;;;;;;8.18;7.38;;;21.40;99.90;;;;;;4996455;28;20062;-74
2022/07/25 02:17:14;;;;;;;9.02;7.63;;;21.40;99.90;;;;;;4998415;28;20089;-74
2022/07/25 02:19:39;;;;;;;8.40;7.50;;;21.40;99.90;;;;;;4998164;28;20344;-75
2022/07/25 02:22:05;;;;;;;9.40;8.15;;;21.40;99.90;;;;;;4997283;28;20414;-75
2022/07/25 02:24:31;;;;;;;10.77;9.25;;;21.40;99.90;;;;;;4997194;28;20046;-76
2022/07/25 02:26:57;;;;;;;9.02;8.13;;;21.30;99.90;;;;;;4996189;28;20137;-75
2022/07/25 02:29:23;;;;;;;9.38;8.35;;;21.30;99.90;;;;;;4997962;28;20061;-75
2022/07/25 02:31:50;;;;;;;9.60;8.65;;;21.30;99.90;;;;;;4996979;28;20053;-75
2022/07/25 02:34:17;;;;;;;10.52;8.45;;;21.30;99.90;;;;;;4997840;28;20459;-75
2022/07/25 02:36:44;;;;;;;9.88;8.82;;;21.20;99.90;;;;;;4995853;28;20077;-75
2022/07/25 02:39:10;;;;;;;9.05;8.15;;;21.20;99.90;;;;;;4997217;28;20085;-75
2022/07/25 02:41:37;;;;;;;10.23;9.25;;;21.20;99.90;;;;;;4996010;28;20053;-75
2022/07/25 02:44:04;;;;;;;10.38;9.20;;;21.10;99.90;;;;;;4996834;28;20046;-75
2022/07/25 02:46:29;;;;;;;10.65;9.05;;;21.10;99.90;;;;;;4996807;28;20042;-75
2022/07/25 02:48:55;;;;;;;10.02;8.95;;;21.10;99.90;;;;;;4996381;28;20046;-75
2022/07/25 02:51:21;;;;;;;11.77;9.32;;;21.40;99.90;;;;;;4996710;28;20042;-75
2022/07/25 02:53:46;;;;;;;10.05;9.05;;;21.00;99.90;;;;;;4995650;28;20055;-75
2022/07/25 02:56:12;;;;;;;11.25;9.88;;;21.00;99.90;;;;;;4996644;28;20085;-75
2022/07/25 02:58:38;;;;;;;12.40;9.95;;;21.00;99.90;;;;;;4997124;28;20065;-74
2022/07/25 03:01:04;;;;;;;11.45;9.93;;;20.90;99.90;;;;;;4995666;28;20104;-75
2022/07/25 03:03:29;;;;;;;17.50;10.27;;;20.90;99.90;;;;;;4995236;28;20520;-77
2022/07/25 03:05:55;;;;;;;10.70;9.60;;;20.90;99.90;;;;;;4995846;28;20054;-75
2022/07/25 03:08:21;;;;;;;11.60;10.38;;;20.80;99.90;;;;;;4979371;28;20046;-74
2022/07/25 03:10:46;;;;;;;12.45;9.90;;;20.80;99.90;;;;;;4995695;28;20050;-75
2022/07/25 03:13:12;;;;;;;11.88;10.20;;;20.80;99.90;;;;;;4995775;28;20490;-75
2022/07/25 03:15:38;;;;;;;11.43;10.23;;;20.80;99.90;;;;;;4996472;28;20046;-75
2022/07/25 03:18:03;;;;;;;11.13;9.98;;;20.80;99.90;;;;;;4996558;28;20438;-75
2022/07/25 03:20:29;;;;;;;11.07;9.88;;;20.70;99.90;;;;;;4995245;28;20104;-75
2022/07/25 03:22:55;;;;;;;11.50;10.30;;;20.70;99.90;;;;;;4994981;28;20050;-75
2022/07/25 03:25:20;;;;;;;10.93;9.88;;;20.70;99.90;;;;;;4979538;28;20046;-75
2022/07/25 03:27:46;;;;;;;12.52;10.93;;;20.70;99.90;;;;;;4996289;28;20129;-75
2022/07/25 03:30:12;;;;;;;12.35;10.07;;;20.70;99.90;;;;;;4996589;28;20117;-75
2022/07/25 03:32:39;;;;;;;11.32;10.10;;;20.70;99.90;;;;;;4994760;28;20054;-75
2022/07/25 03:35:05;;;;;;;11.32;10.13;;;20.70;99.90;;;;;;4995934;28;20169;-75
2022/07/25 03:37:30;;;;;;;11.80;9.48;;;20.60;99.90;;;;;;4995979;28;20054;-75
2022/07/25 03:39:56;;;;;;;11.30;10.10;;;20.70;99.90;;;;;;4995831;28;20048;-75
2022/07/25 03:42:23;;;;;;;12.07;10.18;;;20.60;99.90;;;;;;4995151;28;20050;-74
2022/07/25 03:44:48;;;;;;;10.15;9.20;;;20.60;99.90;;;;;;4995785;28;20182;-74
2022/07/25 03:47:14;;;;;;;11.60;10.48;;;20.60;99.90;;;;;;4994538;28;20070;-75
2022/07/25 03:49:40;;;;;;;10.35;9.40;;;20.60;99.90;;;;;;4995583;28;20181;-74
2022/07/25 03:52:06;;;;;;;11.10;9.70;;;20.60;99.90;;;;;;4994460;28;20057;-74
2022/07/25 03:54:31;;;;;;;10.63;9.55;;;20.70;99.90;;;;;;4995569;28;20050;-75
2022/07/25 03:56:57;;;;;;;12.48;10.07;;;20.60;99.90;;;;;;4978259;28;20125;-74
2022/07/25 03:59:23;;;;;;;9.90;8.85;;;20.60;99.90;;;;;;4995766;28;20049;-74
2022/07/25 04:01:50;;;;;;;10.90;9.77;;;20.60;99.90;;;;;;4994206;28;20043;-75
2022/07/25 04:04:16;;;;;;;11.25;9.88;;;20.60;99.90;;;;;;4995075;28;20486;-74
2022/07/25 04:06:42;;;;;;;10.15;9.15;;;20.60;99.90;;;;;;4994639;28;20065;-74
2022/07/25 04:09:09;;;;;;;11.38;9.70;;;20.60;99.90;;;;;;4994294;28;20046;-75
2022/07/25 04:11:37;;;;;;;10.90;9.80;;;20.60;99.90;;;;;;4995846;28;20377;-74
2022/07/25 04:14:03;;;;;;;10.98;9.77;;;20.60;99.90;;;;;;4995159;28;20136;-74
2022/07/25 04:16:28;;;;;;;11.73;9.45;;;20.60;99.90;;;;;;4995091;28;20054;-74
2022/07/25 04:18:54;;;;;;;11.35;9.45;;;20.60;99.90;;;;;;4995337;28;20042;-74
2022/07/25 04:21:20;;;;;;;10.68;9.60;;;20.60;99.90;;;;;;4995081;28;20463;-74
2022/07/25 04:23:47;;;;;;;10.30;9.10;;;20.60;99.90;;;;;;4995053;28;20498;-74
2022/07/25 04:26:12;;;;;;;11.48;10.30;;;20.60;99.90;;;;;;4995769;28;20374;-74
2022/07/25 04:28:38;;;;;;;10.55;9.32;;;20.60;99.90;;;;;;4995221;28;20062;-74
2022/07/25 04:31:04;;;;;;;11.45;9.45;;;20.60;99.90;;;;;;4994834;28;20054;-74
2022/07/25 04:33:30;;;;;;;10.63;9.50;;;20.60;99.90;;;;;;4993698;28;20054;-74
2022/07/25 04:35:55;;;;;;;11.07;9.57;;;20.60;99.90;;;;;;4994799;28;20057;-74
2022/07/25 04:38:21;;;;;;;11.18;9.48;;;20.60;99.90;;;;;;4994792;28;20534;-74
2022/07/25 04:40:47;;;;;;;9.93;8.93;;;20.60;99.90;;;;;;4993974;28;20047;-74
2022/07/25 04:43:13;;;;;;;10.48;9.40;;;20.60;99.90;;;;;;4993503;28;20137;-74
2022/07/25 04:45:39;;;;;;;10.00;8.98;;;20.60;99.90;;;;;;4993713;28;20192;-74
2022/07/25 04:48:05;;;;;;;11.10;9.05;;;20.60;99.90;;;;;;4994546;28;20504;-74
2022/07/25 04:50:31;;;;;;;10.43;8.82;;;20.60;99.90;;;;;;4994560;28;20060;-74
2022/07/25 04:52:56;;;;;;;12.07;9.77;;;20.60;99.90;;;;;;4994549;28;20038;-74
2022/07/25 04:55:22;;;;;;;10.40;9.35;;;20.60;99.90;;;;;;4994530;28;20046;-74
2022/07/25 04:57:48;;;;;;;11.82;9.98;;;20.60;99.90;;;;;;4994503;28;20046;-74
2022/07/25 05:00:14;;;;;;;10.90;9.30;;;20.70;99.90;;;;;;4993493;28;20046;-74
2022/07/25 05:02:40;;;;;;;10.23;9.20;;;20.70;99.90;;;;;;4993203;28;20100;-74
2022/07/25 05:05:07;;;;;;;11.20;9.63;;;20.80;99.90;;;;;;4994433;28;20042;-74
2022/07/25 05:07:33;;;;;;;12.25;9.43;;;20.80;99.90;;;;;;4994321;28;20096;-73
2022/07/25 05:09:59;;;;;;;11.27;9.55;;;20.90;99.90;;;;;;4993076;28;20046;-73
2022/07/25 05:12:25;;;;;;;9.93;8.93;;;21.00;99.90;;;;;;4993374;28;20116;-74
2022/07/25 05:14:51;;;;;;;9.85;8.77;;;21.10;99.90;;;;;;4995052;28;20057;-74
2022/07/25 05:17:16;;;;;;;10.55;8.98;;;21.10;99.90;;;;;;4994250;28;20446;-74
2022/07/25 05:19:42;;;;;;;9.05;8.18;;;21.10;99.90;;;;;;4976967;28;20479;-74
2022/07/25 05:22:08;;;;;;;12.02;9.60;;;21.20;99.90;;;;;;4993052;28;20061;-74
2022/07/25 05:24:35;;;;;;;9.65;8.65;;;21.20;99.90;;;;;;4993626;28;20058;-74
2022/07/25 05:27:01;;;;;;;10.80;8.68;;;21.20;99.90;;;;;;4994188;28;20046;-74
2022/07/25 05:29:27;;;;;;;10.50;8.40;;;21.20;99.90;;;;;;4976365;28;20054;-74
2022/07/25 05:31:53;;;;;;;12.88;9.25;;;21.30;99.90;;;;;;4994057;28;20509;-75
2022/07/25 05:34:19;;;;;;;10.60;9.50;;;21.30;99.90;;;;;;4976623;28;20050;-74
2022/07/25 05:36:45;;;;;;;10.45;8.57;;;21.40;99.90;;;;;;4994022;28;20046;-74
2022/07/25 05:39:10;;;;;;;10.45;9.35;;;21.40;99.90;;;;;;4993079;28;20053;-73
2022/07/25 05:41:36;;;;;;;9.90;8.57;;;21.40;99.90;;;;;;4993960;28;20505;-74
2022/07/25 05:44:02;;;;;;;10.73;8.65;;;21.50;99.90;;;;;;4993938;28;20042;-74
2022/07/25 05:46:28;;;;;;;11.75;9.43;;;21.50;99.90;;;;;;4992821;28;20057;-74
2022/07/25 05:48:55;;;;;;;11.30;8.48;;;21.60;99.90;;;;;;4993611;28;20051;-74
2022/07/25 05:51:21;;;;;;;10.18;8.23;;;21.60;99.90;;;;;;4994703;28;20430;-74
2022/07/25 05:53:47;;;;;;;8.80;7.82;;;21.70;99.90;;;;;;4993457;28;20134;-73
2022/07/25 05:56:12;;;;;;;11.95;8.45;;;21.70;99.90;;;;;;4993856;28;20412;-73
2022/07/25 05:58:39;;;;;;;9.35;8.38;;;21.80;99.90;;;;;;4993878;28;20046;-74
2022/07/25 06:01:12;;;;;;;9.82;8.73;;;21.80;99.90;;;;;;4993791;28;20055;-74
2022/07/25 06:03:37;;;;;;;9.52;8.57;;;21.80;99.90;;;;;;4993918;28;20097;-73
2022/07/25 06:06:04;;;;;;;9.25;8.32;;;21.90;99.90;;;;;;4993077;28;20054;-79
2022/07/25 06:08:29;;;;;;;9.90;8.32;;;21.90;99.90;;;;;;4992565;28;20050;-80
2022/07/25 06:10:58;;;;;;;9.68;8.63;;;21.90;99.90;;;;;;4993738;28;20050;-80
2022/07/25 06:13:25;;;;;;;9.05;8.15;;;22.00;99.90;;;;;;4992586;28;20059;-80
2022/07/25 06:15:50;;;;;;;8.23;7.40;;;22.00;99.90;;;;;;4993765;28;20053;-79
2022/07/25 06:18:16;;;;;;;10.93;7.80;;;22.00;99.90;;;;;;4993777;28;20402;-80
2022/07/25 06:20:42;;;;;;;10.32;8.68;;;22.10;99.90;;;;;;4992961;28;20391;-80
2022/07/25 06:23:08;;;;;;;9.55;7.85;;;22.10;99.90;;;;;;4993733;28;20039;-79
2022/07/25 06:25:33;;;;;;;10.18;8.20;;;22.20;99.90;;;;;;4992468;28;20121;-80
2022/07/25 06:27:59;;;;;;;10.43;8.18;;;22.20;99.90;;;;;;4994225;28;20058;-80
2022/07/25 06:30:25;;;;;;;9.73;8.75;;;22.20;99.90;;;;;;4993852;28;20054;-80
2022/07/25 06:32:51;;;;;;;8.90;8.00;;;22.30;99.90;;;;;;4994321;28;20053;-79
2022/07/25 06:35:17;;;;;;;10.45;8.18;;;22.40;99.90;;;;;;4992423;28;20042;-79
2022/07/25 06:37:43;;;;;;;10.90;8.38;;;22.40;99.90;;;;;;4997017;28;20090;-79
2022/07/25 06:40:09;;;;;;;11.70;8.88;;;22.40;99.90;;;;;;4997500;28;20061;-79
2022/07/25 06:42:45;;;;;;;9.52;8.40;;;22.40;99.90;;;;;;4995983;28;20047;-80
2022/07/25 06:45:12;;;;;;;9.57;8.32;;;22.60;99.90;;;;;;4995918;28;20061;-78
2022/07/25 06:47:39;;;;;;;10.98;8.30;;;22.60;99.90;;;;;;4996869;28;20105;-80
2022/07/25 06:50:07;;;;;;;10.15;8.27;;;22.70;99.90;;;;;;4996782;28;20054;-80
2022/07/25 06:52:32;;;;;;;9.23;8.27;;;22.70;99.90;;;;;;4996335;28;20096;-79
2022/07/25 06:54:58;;;;;;;11.30;8.38;;;22.70;99.90;;;;;;4996726;28;20478;-80
2022/07/25 06:57:24;;;;;;;9.38;7.68;;;22.70;99.90;;;;;;4996722;28;20539;-80
2022/07/25 06:59:50;;;;;;;9.25;8.35;;;22.80;99.90;;;;;;4996629;28;20047;-80
2022/07/25 07:02:15;;;;;;;9.70;8.57;;;22.70;99.90;;;;;;4996514;28;20072;-81
2022/07/25 07:04:41;;;;;;;9.93;7.70;;;22.80;99.90;;;;;;4979376;28;20395;-79
2022/07/25 07:07:07;;;;;;;10.52;7.45;;;22.80;99.90;;;;;;4996463;28;20457;-80
2022/07/25 07:09:32;;;;;;;9.18;7.05;;;22.80;99.90;;;;;;4995474;28;20486;-80
2022/07/25 07:11:58;;;;;;;9.45;6.93;;;22.80;99.90;;;;;;4996903;28;20043;-80
2022/07/25 07:14:24;;;;;;;7.65;6.82;;;22.90;99.90;;;;;;4997148;28;20061;-79
2022/07/25 07:16:49;;;;;;;6.97;6.25;;;22.90;99.90;;;;;;4995198;28;20053;-79
2022/07/25 07:19:18;;;;;;;7.57;6.07;;;23.00;99.90;;;;;;4996245;28;20042;-80
2022/07/25 07:21:44;;;;;;;7.97;6.95;;;23.10;99.90;;;;;;4996452;28;20455;-82
2022/07/25 07:24:10;;;;;;;7.57;6.63;;;23.20;99.90;;;;;;4996300;28;20403;-81
2022/07/25 07:26:36;;;;;;;7.65;5.90;;;23.30;99.90;;;;;;4996676;28;20049;-80
2022/07/25 07:29:02;;;;;;;10.02;6.70;;;23.40;99.90;;;;;;4996344;28;20053;-80
2022/07/25 07:31:28;;;;;;;7.38;5.93;;;23.50;99.90;;;;;;4994906;28;20096;-82
2022/07/25 07:33:54;;;;;;;7.30;6.55;;;23.60;99.90;;;;;;4995307;28;20046;-79
2022/07/25 07:36:21;;;;;;;7.72;6.43;;;23.70;99.90;;;;;;4996044;28;20625;-80
2022/07/25 07:38:47;;;;;;;7.10;6.40;;;23.80;99.90;;;;;;4996082;28;20090;-80
2022/07/25 07:41:13;;;;;;;8.63;6.80;;;24.00;99.90;;;;;;4995923;28;20181;-78
2022/07/25 07:43:40;;;;;;;7.43;6.72;;;24.10;99.90;;;;;;4995633;28;20442;-84
2022/07/25 07:46:05;;;;;;;8.60;6.70;;;24.10;99.90;;;;;;5000481;28;20057;-82
2022/07/25 07:48:32;;;;;;;8.38;7.35;;;24.20;99.90;;;;;;4995605;28;20046;-81
2022/07/25 07:50:59;;;;;;;8.23;6.50;;;24.20;99.90;;;;;;4995786;28;20050;-83
2022/07/25 07:55:42;;;;;;;7.85;6.70;;;24.20;99.90;;;;;;4995973;28;20054;-85
2022/07/25 07:56:11;;;;;;;8.90;7.13;;;24.20;99.90;;;;;;4994892;28;20050;-84
2022/07/25 07:58:36;;;;;;;10.50;7.65;;;24.20;99.90;;;;;;4993734;28;20079;-80
2022/07/25 08:01:03;;;;;;;7.90;7.10;;;24.20;99.90;;;;;;4995717;28;20067;-81
2022/07/25 08:03:28;;;;;;;7.95;6.88;;;24.20;99.90;;;;;;4995159;28;20056;-80
2022/07/25 08:05:54;;;;;;;9.48;7.85;;;24.30;99.90;;;;;;4995464;28;20128;-82
2022/07/25 08:08:20;;;;;;;10.25;7.70;;;24.30;99.90;;;;;;4995666;28;20046;-82
2022/07/25 08:10:47;;;;;;;9.18;8.27;;;24.30;99.90;;;;;;4995021;28;20382;-83
2022/07/25 08:13:28;;;;;;;8.80;7.28;;;24.30;99.90;;;;;;4994236;28;20050;-83
2022/07/25 08:15:59;;;;;;;8.95;7.07;;;24.40;99.90;;;;;;4994713;28;20104;-81
2022/07/25 08:18:28;;;;;;;9.98;8.38;;;24.50;99.90;;;;;;4995364;28;20047;-88
2022/07/25 08:20:54;;;;;;;9.82;8.43;;;24.50;99.90;;;;;;4995228;28;20050;-84
2022/07/25 08:23:21;;;;;;;12.73;8.23;;;24.60;99.90;;;;;;4993696;28;20513;-81
2022/07/25 08:25:47;;;;;;;9.93;7.75;;;24.60;99.90;;;;;;4977838;28;20347;-78
2022/07/25 08:28:13;;;;;;;9.32;7.28;;;24.60;99.90;;;;;;4994970;28;20359;-80
2022/07/25 08:30:40;;;;;;;11.23;7.80;;;24.60;99.90;;;;;;4995051;28;20089;-81
2022/07/25 08:33:09;;;;;;;12.02;7.90;;;24.70;99.90;;;;;;4993818;28;20512;-83
2022/07/25 08:35:36;;;;;;;8.77;7.88;;;24.70;99.90;;;;;;4993808;28;20069;-78
2022/07/25 08:38:03;;;;;;;8.27;7.47;;;24.70;99.90;;;;;;4994940;28;20169;-83
2022/07/25 08:40:31;;;;;;;8.13;7.13;;;24.60;99.90;;;;;;4994900;28;20046;-82
2022/07/25 08:42:57;;;;;;;8.80;6.47;;;24.60;99.90;;;;;;4994876;28;20094;-79
2022/07/25 08:45:25;;;;;;;10.25;7.57;;;24.60;99.90;;;;;;4994754;28;20105;-81
2022/07/25 08:47:53;;;;;;;8.27;7.22;;;24.50;99.90;;;;;;4994784;28;20050;-82
2022/07/25 08:50:24;;;;;;;9.52;6.40;;;24.50;99.90;;;;;;4995632;28;20050;-79
2022/07/25 08:52:50;;;;;;;7.93;5.95;;;24.50;99.90;;;;;;4995398;28;20116;-84
2022/07/25 08:55:19;;;;;;;6.93;5.72;;;24.50;99.90;;;;;;4993769;28;20133;-81
2022/07/25 08:57:49;;;;;;;6.97;6.28;;;24.60;99.90;;;;;;4994339;28;20042;-80
2022/07/25 09:00:20;;;;;;;6.00;5.40;;;24.60;99.90;;;;;;4993130;28;20054;-79
2022/07/25 09:02:57;;;;;;;6.30;5.70;;;24.70;99.90;;;;;;4994551;28;20050;-79
2022/07/25 09:05:25;;;;;;;6.90;5.25;;;24.70;99.90;;;;;;4995225;28;20054;-80
2022/07/25 09:07:52;;;;;;;6.38;5.30;;;24.70;99.90;;;;;;4994509;28;20051;-79
2022/07/25 09:10:20;;;;;;;7.07;5.38;;;24.70;99.90;;;;;;4993343;28;20104;-80
2022/07/25 09:12:54;;;;;;;5.80;4.60;;;24.70;99.90;;;;;;4994485;28;20056;-80
2022/07/25 09:15:30;;;;;;;5.05;4.50;;;24.70;99.90;;;;;;4994534;28;20054;-80
2022/07/25 09:17:58;;;;;;;6.05;4.20;;;24.60;99.90;;;;;;4994502;28;20051;-79
2022/07/25 09:20:35;;;;;;;7.25;4.55;;;24.60;99.90;;;;;;4993474;28;20470;-81
2022/07/25 09:23:00;;;;;;;4.93;4.15;;;24.50;99.90;;;;;;4995010;28;20053;-79
2022/07/25 09:25:28;;;;;;;6.38;3.90;;;24.50;99.90;;;;;;4977461;28;20054;-79
2022/07/25 09:28:15;;;;;;;5.60;4.25;;;24.40;99.90;;;;;;4994884;28;20098;-79
2022/07/25 09:30:55;;;;;;;7.15;4.97;;;24.40;99.90;;;;;;4993568;28;20560;-80
2022/07/25 09:33:23;;;;;;;6.40;5.50;;;24.30;99.90;;;;;;4994282;28;20061;-80
2022/07/25 09:35:48;;;;;;;7.38;6.20;;;24.30;99.90;;;;;;4994974;28;20137;-81
2022/07/25 09:38:15;;;;;;;6.07;5.40;;;24.30;99.90;;;;;;4994288;28;20125;-80
2022/07/25 09:40:52;;;;;;;6.43;4.93;;;24.20;99.90;;;;;;4993068;28;20046;-81
2022/07/25 09:43:17;;;;;;;5.13;4.40;;;24.30;99.90;;;;;;4977541;28;20092;-87
2022/07/25 09:45:52;;;;;;;5.75;4.35;;;24.20;99.90;;;;;;4994574;28;20523;-85
2022/07/25 09:48:19;;;;;;;5.28;4.70;;;24.20;99.90;;;;;;4993349;28;20618;-84
2022/07/25 09:50:46;;;;;;;7.28;5.03;;;24.20;99.90;;;;;;4993344;28;20121;-83
2022/07/25 09:53:12;;;;;;;5.80;4.85;;;24.30;99.90;;;;;;4993898;28;20038;-78
2022/07/25 09:55:39;;;;;;;5.30;4.80;;;24.30;99.90;;;;;;4976283;28;20478;-79
2022/07/25 09:58:05;;;;;;;6.40;4.80;;;24.40;99.90;;;;;;4992203;28;20053;-82
2022/07/25 10:00:31;;;;;;;5.75;5.15;;;24.40;99.90;;;;;;4977170;28;20058;-82
2022/07/25 10:03:27;;;;;;;7.35;4.47;;;24.40;99.90;;;;;;4992028;28;20112;-78
2022/07/25 10:06:19;;;;;;;6.68;5.97;;;24.50;99.90;;;;;;4993032;28;20185;-81
2022/07/25 10:08:46;;;;;;;7.25;4.82;;;24.50;99.90;;;;;;4994091;28;20089;-79
2022/07/25 10:11:38;;;;;;;6.20;4.63;;;24.50;99.90;;;;;;4997400;28;20046;-80
2022/07/25 10:14:11;;;;;;;5.85;4.50;;;24.50;99.90;;;;;;4996053;28;20062;-80
2022/07/25 10:16:45;;;;;;;4.70;4.20;;;24.50;99.90;;;;;;4995685;28;20050;-79
2022/07/25 10:19:11;;;;;;;6.13;4.30;;;24.50;99.90;;;;;;4996696;28;20046;-81
2022/07/25 10:21:37;;;;;;;5.90;4.28;;;24.60;99.90;;;;;;4995889;28;20077;-77
2022/07/25 10:24:08;;;;;;;4.90;4.10;;;24.70;99.90;;;;;;4996474;28;20072;-81
2022/07/25 10:26:40;;;;;;;4.57;3.40;;;24.70;99.90;;;;;;4996446;28;20058;-78
2022/07/25 10:29:09;;;;;;;7.22;3.72;;;24.70;99.90;;;;;;4995041;28;20058;-81
2022/07/25 10:31:40;;;;;;;3.55;2.70;;;24.70;99.90;;;;;;4996624;28;20054;-81
2022/07/25 10:34:08;;;;;;;2.83;2.33;;;24.80;99.90;;;;;;5000260;28;20074;-79
2022/07/25 10:36:42;;;;;;;3.67;2.35;;;24.80;99.90;;;;;;4997766;28;20046;-81
2022/07/25 10:39:11;;;;;;;2.47;1.73;;;24.80;99.90;;;;;;4996524;28;20042;-80
2022/07/25 10:41:39;;;;;;;3.65;1.42;;;24.70;99.90;;;;;;4996545;28;20109;-81
2022/07/25 10:44:11;;;;;;;2.17;1.10;;;24.70;99.90;;;;;;4996438;28;20050;-83
2022/07/25 10:46:37;;;;;;;3.50;1.13;;;24.70;99.90;;;;;;4995532;28;20415;-79
2022/07/25 10:49:05;;;;;;;1.40;1.17;;;24.70;99.90;;;;;;4996758;28;20046;-80
2022/07/25 10:51:36;;;;;;;2.10;1.02;;;24.80;99.90;;;;;;4994800;28;20125;-76
2022/07/25 10:54:16;;;;;;;1.00;0.80;;;24.80;99.90;;;;;;4995993;28;20047;-81
2022/07/25 10:56:57;;;;;;;2.65;0.90;;;24.80;99.90;;;;;;4996107;28;20053;-86
2022/07/25 10:59:30;;;;;;;0.73;0.70;;;24.80;99.90;;;;;;4996808;28;20050;-80
2022/07/25 11:01:56;;;;;;;2.45;1.00;;;24.70;99.90;;;;;;4994900;28;20502;-83
2022/07/25 11:04:23;;;;;;;1.52;0.85;;;24.70;99.90;;;;;;4995203;28;20054;-84
2022/07/25 11:06:49;;;;;;;2.10;1.00;;;24.70;99.90;;;;;;4995445;28;20057;-79
2022/07/25 11:09:17;;;;;;;1.42;0.70;;;24.80;99.90;;;;;;4995465;28;20038;-82
2022/07/25 11:11:49;;;;;;;2.65;0.98;;;24.50;99.90;;;;;;4995698;28;20042;-80
2022/07/25 11:14:15;;;;;;;1.23;0.90;;;24.70;99.90;;;;;;4994906;28;20458;-80
2022/07/25 11:16:43;;;;;;;3.22;0.80;;;24.70;99.90;;;;;;4994679;28;20065;-81
2022/07/25 11:19:21;;;;;;;0.75;0.65;;;24.60;99.90;;;;;;4995787;28;20050;-87
2022/07/25 11:21:50;;;;;;;1.08;0.70;;;24.50;99.90;;;;;;4994770;28;20057;-86
2022/07/25 11:24:16;;;;;;;2.13;0.60;;;24.40;99.90;;;;;;4994700;28;20057;-74
2022/07/25 11:26:50;;;;;;;2.65;0.80;;;24.30;99.90;;;;;;4995391;28;20038;-75
2022/07/25 11:29:20;;;;;;;1.80;0.70;;;24.20;99.90;;;;;;4993731;28;20062;-77
2022/07/25 11:31:53;;;;;;;1.95;0.70;;;24.00;99.90;;;;;;4996265;28;20046;-76
2022/07/25 11:34:23;;;;;;;2.35;0.77;;;23.70;99.90;;;;;;4995184;28;20128;-75
2022/07/25 11:36:51;;;;;;;1.77;0.70;;;23.50;99.90;;;;;;4995729;28;20491;-73
2022/07/25 11:39:17;;;;;;;2.03;0.80;;;23.30;99.90;;;;;;4994166;28;20107;-75
2022/07/25 11:41:43;;;;;;;2.78;0.90;;;23.30;99.90;;;;;;4993763;28;20050;-82
2022/07/25 11:44:08;;;;;;;1.73;0.90;;;23.30;99.90;;;;;;4995739;28;20050;-75
2022/07/25 11:46:43;;;;;;;2.17;1.08;;;23.20;99.90;;;;;;4993746;28;20425;-74
2022/07/25 11:49:08;;;;;;;2.00;1.02;;;23.20;99.90;;;;;;4994115;28;20447;-74
2022/07/25 11:51:38;;;;;;;2.88;1.02;;;23.30;99.90;;;;;;4994831;28;20042;-73
2022/07/25 11:54:09;;;;;;;3.47;1.20;;;23.20;99.90;;;;;;4994952;28;20125;-75
2022/07/25 11:56:39;;;;;;;3.28;1.00;;;23.30;99.90;;;;;;4993085;28;20050;-74
2022/07/25 11:59:04;;;;;;;3.10;1.20;;;23.20;99.90;;;;;;4994880;28;20129;-71
2022/07/25 12:01:35;;;;;;;3.63;1.23;;;23.30;99.90;;;;;;4994926;28;20125;-77
2022/07/25 12:04:11;;;;;;;2.92;1.27;;;23.20;99.90;;;;;;4994632;28;20474;-74
2022/07/25 12:06:38;;;;;;;2.58;1.13;;;23.30;99.90;;;;;;4994759;28;20057;-75
2022/07/25 12:09:18;;;;;;;1.70;1.10;;;23.30;99.90;;;;;;4994400;28;20042;-74
2022/07/25 12:11:46;;;;;;;3.40;1.23;;;23.40;99.90;;;;;;4993402;28;20092;-74
2022/07/25 12:14:12;;;;;;;2.50;0.98;;;23.40;99.90;;;;;;4994499;28;20058;-74
2022/07/25 12:16:38;;;;;;;1.50;1.10;;;23.40;99.90;;;;;;4995030;28;20046;-74
2022/07/25 12:19:09;;;;;;;2.30;1.15;;;23.40;99.90;;;;;;4994086;28;20630;-74
2022/07/25 12:21:36;;;;;;;3.97;1.40;;;23.50;99.90;;;;;;4994675;28;20046;-72
2022/07/25 12:24:01;;;;;;;2.72;1.25;;;23.40;99.90;;;;;;4993849;28;20477;-73
2022/07/25 12:26:28;;;;;;;4.57;1.35;;;23.50;99.90;;;;;;4994585;28;20133;-76
2022/07/25 12:28:53;;;;;;;3.55;1.27;;;23.40;99.90;;;;;;4993439;28;20151;-74
2022/07/25 12:31:19;;;;;;;3.17;1.10;;;23.40;99.90;;;;;;4994825;28;20447;-74
2022/07/25 12:33:45;;;;;;;2.72;1.10;;;23.40;99.90;;;;;;4992977;28;20046;-75
2022/07/25 12:36:12;;;;;;;3.63;1.08;;;23.50;99.90;;;;;;4994921;28;20085;-76
2022/07/25 12:38:38;;;;;;;3.15;1.25;;;23.50;99.90;;;;;;4994022;28;20057;-77
2022/07/25 12:41:04;;;;;;;3.03;1.25;;;23.60;99.90;;;;;;4993967;28;20466;-80
2022/07/25 12:43:30;;;;;;;4.30;1.30;;;23.60;99.90;;;;;;4997247;28;20050;-80